createdAt,value
2022-10-02T00:00:11.327Z,81.50
2022-10-02T00:06:55.258Z,81.90
2022-10-02T00:09:57.659Z,81.80
2022-10-02T00:16:02.922Z,82.10
2022-10-02T00:19:14.674Z,82.30
2022-10-02T00:22:29.794Z,82.50
2022-10-02T00:28:15.170Z,82.40
2022-10-02T00:31:22.412Z,82.30
2022-10-02T00:38:05.205Z,82.60
2022-10-02T00:41:01.330Z,82.70
2022-10-02T00:44:05.210Z,82.70
2022-10-02T00:47:26.332Z,82.80
2022-10-02T00:50:18.846Z,83.00
2022-10-02T00:53:00.510Z,83.00
2022-10-02T00:55:52.241Z,83.10
2022-10-02T00:58:53.177Z,83.20
2022-10-02T01:01:52.355Z,83.30
2022-10-02T01:08:08.902Z,83.60
2022-10-02T01:10:46.089Z,83.50
2022-10-02T01:13:15.818Z,83.70
2022-10-02T01:19:52.705Z,83.90
2022-10-02T01:23:05.863Z,83.90
2022-10-02T01:26:15.506Z,84.00
2022-10-02T01:29:18.605Z,83.90
2022-10-02T01:32:01.852Z,84.00
2022-10-02T01:35:01.335Z,84.00
2022-10-02T01:37:54.437Z,84.60
2022-10-02T01:41:17.658Z,84.10
2022-10-02T01:44:14.678Z,84.30
2022-10-02T01:47:46.071Z,84.20
2022-10-02T01:50:31.057Z,84.40
2022-10-02T01:53:15.393Z,84.30
2022-10-02T01:56:36.165Z,84.30
2022-10-02T01:59:13.537Z,84.40
2022-10-02T02:02:38.703Z,84.40
2022-10-02T02:05:16.296Z,84.50
2022-10-02T02:08:18.372Z,84.40
2022-10-02T02:11:16.895Z,84.50
2022-10-02T02:14:26.476Z,84.50
2022-10-02T02:18:26.170Z,84.40
2022-10-02T02:21:21.862Z,84.60
2022-10-02T02:28:21.940Z,84.50
2022-10-02T02:30:56.954Z,84.40
2022-10-02T02:34:09.106Z,84.40
2022-10-02T02:36:59.089Z,84.70
2022-10-02T02:43:04.112Z,84.80
2022-10-02T02:49:19.081Z,84.80
2022-10-02T02:52:15.367Z,84.80
2022-10-02T02:58:26.761Z,84.80
2022-10-02T03:01:07.138Z,84.80
2022-10-02T03:04:59.454Z,84.80
2022-10-02T03:07:17.428Z,84.90
2022-10-02T03:10:43.259Z,84.90
2022-10-02T03:14:13.075Z,85.00
2022-10-02T03:20:58.615Z,85.00
2022-10-02T03:23:57.014Z,84.90
2022-10-02T03:27:07.419Z,85.00
2022-10-02T03:30:08.098Z,85.00
2022-10-02T03:33:20.092Z,85.10
2022-10-02T03:36:01.090Z,85.10
2022-10-02T03:42:13.649Z,85.20
2022-10-02T03:47:39.608Z,85.20
2022-10-02T03:54:31.212Z,85.30
2022-10-02T04:00:37.529Z,85.30
2022-10-02T04:03:22.579Z,85.30
2022-10-02T04:06:22.002Z,85.30
2022-10-02T04:09:31.010Z,85.30
2022-10-02T04:12:20.870Z,85.50
2022-10-02T04:19:14.255Z,85.50
2022-10-02T04:25:09.095Z,85.50
2022-10-02T04:27:47.715Z,85.60
2022-10-02T04:30:53.712Z,85.50
2022-10-02T04:34:00.871Z,85.50
2022-10-02T04:37:24.939Z,85.50
2022-10-02T04:40:25.669Z,85.60
2022-10-02T04:43:49.758Z,85.50
2022-10-02T04:46:43.973Z,85.60
2022-10-02T04:49:26.272Z,85.60
2022-10-02T04:53:00.150Z,85.60
2022-10-02T04:56:08.013Z,85.80
2022-10-02T04:59:03.344Z,85.70
2022-10-02T05:02:25.349Z,85.70
2022-10-02T05:05:25.934Z,85.90
2022-10-02T05:08:06.208Z,85.90
2022-10-02T05:15:25.045Z,86.00
2022-10-02T05:18:22.058Z,86.00
2022-10-02T05:35:37.336Z,86.10
2022-10-02T05:38:33.343Z,86.10
2022-10-02T05:41:28.491Z,86.10
2022-10-02T05:44:42.855Z,86.20
2022-10-02T05:47:39.685Z,86.20
2022-10-02T05:50:38.975Z,86.20
2022-10-02T05:59:41.393Z,86.40
2022-10-02T06:02:39.608Z,86.40
2022-10-02T06:05:34.538Z,86.50
2022-10-02T06:08:19.032Z,86.50
2022-10-02T06:10:59.913Z,87.10
2022-10-02T06:13:47.118Z,86.60
2022-10-02T06:17:01.624Z,86.60
2022-10-02T06:27:34.628Z,86.60
2022-10-02T06:31:45.465Z,86.60
2022-10-02T06:33:14.406Z,86.50
2022-10-02T06:36:22.975Z,86.60
2022-10-02T06:39:27.008Z,86.70
2022-10-02T06:42:39.744Z,86.70
2022-10-02T06:49:41.687Z,86.70
2022-10-02T06:53:25.766Z,86.70
2022-10-02T06:59:52.359Z,86.70
2022-10-02T07:06:58.414Z,86.60
2022-10-02T07:10:08.705Z,86.70
2022-10-02T07:20:19.904Z,86.80
2022-10-02T07:27:09.198Z,86.80
2022-10-02T07:30:12.254Z,86.80
2022-10-02T07:33:19.893Z,86.70
2022-10-02T07:43:38.064Z,86.80
2022-10-02T07:47:15.513Z,86.70
2022-10-02T07:50:23.893Z,86.90
2022-10-02T07:53:25.930Z,86.80
2022-10-02T07:59:47.449Z,86.90
2022-10-02T08:03:12.389Z,86.90
2022-10-02T08:09:59.536Z,86.90
2022-10-02T08:13:23.829Z,86.80
2022-10-02T08:16:45.017Z,86.80
2022-10-02T08:20:17.565Z,86.90
2022-10-02T08:22:47.506Z,86.80
2022-10-02T08:36:49.185Z,86.80
2022-10-02T08:39:52.225Z,86.70
2022-10-02T09:01:14.729Z,86.50
2022-10-02T09:04:43.900Z,86.50
2022-10-02T09:12:07.939Z,86.40
2022-10-02T09:19:24.682Z,86.10
2022-10-02T09:22:30.317Z,86.00
2022-10-02T09:28:45.374Z,85.70
2022-10-02T09:36:10.789Z,85.50
2022-10-02T09:42:22.679Z,85.10
2022-10-02T10:18:52.672Z,83.30
2022-10-02T10:32:47.552Z,82.60
2022-10-02T10:46:14.071Z,81.40
2022-10-02T10:49:06.375Z,81.10
2022-10-02T10:52:29.004Z,80.80
2022-10-02T11:11:07.980Z,79.40
2022-10-02T12:08:14.786Z,74.80
2022-10-02T12:11:40.515Z,74.50
2022-10-02T12:15:01.143Z,74.40
2022-10-02T12:21:39.463Z,73.70
2022-10-02T12:25:15.930Z,73.30
2022-10-02T12:28:08.385Z,73.20
2022-10-02T12:33:56.815Z,72.80
2022-10-02T12:36:50.035Z,72.50
2022-10-02T12:40:33.047Z,72.30
2022-10-02T12:43:59.870Z,71.90
2022-10-02T12:50:02.557Z,71.40
2022-10-02T12:53:18.590Z,71.20
2022-10-02T12:56:29.566Z,70.80
2022-10-02T13:03:19.418Z,70.00
2022-10-02T13:09:30.080Z,69.60
2022-10-02T13:19:20.599Z,68.90
2022-10-02T13:33:12.698Z,68.00
2022-10-02T13:36:54.221Z,67.70
2022-10-02T13:39:28.622Z,67.40
2022-10-02T13:53:39.986Z,66.30
2022-10-02T13:59:59.769Z,65.90
2022-10-02T14:07:03.324Z,65.60
2022-10-02T14:10:22.498Z,65.40
2022-10-02T14:17:41.758Z,65.00
2022-10-02T14:24:49.607Z,64.70
2022-10-02T14:31:27.053Z,64.70
2022-10-02T14:34:16.055Z,64.70
2022-10-02T14:37:38.594Z,64.60
2022-10-02T14:40:14.796Z,64.30
2022-10-02T14:43:03.582Z,64.10
2022-10-02T14:45:58.507Z,63.90
2022-10-02T14:49:08.354Z,63.70
2022-10-02T14:52:01.952Z,63.70
2022-10-02T14:54:55.522Z,63.80
2022-10-02T14:57:26.836Z,63.70
2022-10-02T15:00:38.916Z,63.80
2022-10-02T15:03:37.530Z,64.20
2022-10-02T15:06:51.700Z,63.70
2022-10-02T15:10:24.683Z,63.70
2022-10-02T15:13:09.990Z,63.60
2022-10-02T15:16:11.891Z,63.70
2022-10-02T15:22:46.580Z,63.40
2022-10-02T15:25:18.083Z,63.00
2022-10-02T15:28:12.092Z,63.10
2022-10-02T15:35:27.095Z,62.60
2022-10-02T15:42:58.763Z,62.50
2022-10-02T15:45:36.050Z,62.50
2022-10-02T15:48:20.030Z,62.50
2022-10-02T15:50:58.183Z,62.30
2022-10-02T15:54:19.335Z,62.60
2022-10-02T15:56:59.253Z,62.60
2022-10-02T16:00:04.123Z,62.70
2022-10-02T16:02:45.433Z,62.50
2022-10-02T16:05:31.292Z,62.60
2022-10-02T16:08:16.588Z,62.40
2022-10-02T16:11:18.688Z,62.40
2022-10-02T16:14:08.001Z,62.20
2022-10-02T16:16:48.237Z,62.10
2022-10-02T16:19:48.027Z,62.10
2022-10-02T16:22:38.061Z,61.90
2022-10-02T16:29:04.240Z,62.00
2022-10-02T16:32:35.177Z,62.20
2022-10-02T16:35:47.010Z,62.20
2022-10-02T16:42:47.932Z,62.10
2022-10-02T16:45:37.675Z,62.20
2022-10-02T16:48:14.269Z,62.40
2022-10-02T16:51:42.922Z,62.40
2022-10-02T16:58:12.631Z,62.60
2022-10-02T17:01:02.738Z,62.80
2022-10-02T17:03:37.112Z,62.90
2022-10-02T17:06:07.881Z,63.10
2022-10-02T17:08:49.148Z,63.20
2022-10-02T17:11:32.902Z,63.20
2022-10-02T17:14:22.158Z,63.50
2022-10-02T17:17:01.124Z,63.70
2022-10-02T17:26:57.718Z,64.60
2022-10-02T17:29:47.150Z,64.90
2022-10-02T17:36:13.871Z,65.50
2022-10-02T17:38:59.344Z,65.70
2022-10-02T17:41:42.704Z,66.10
2022-10-02T17:44:45.365Z,66.40
2022-10-02T17:47:43.434Z,66.70
2022-10-02T17:50:21.599Z,66.90
2022-10-02T17:53:17.472Z,67.20
2022-10-02T17:56:23.919Z,67.40
2022-10-02T17:59:20.903Z,67.70
2022-10-02T18:02:22.511Z,68.10
2022-10-02T18:05:35.918Z,68.60
2022-10-02T18:11:46.548Z,69.20
2022-10-02T18:18:19.279Z,69.80
2022-10-02T18:20:51.506Z,70.00
2022-10-02T18:23:52.013Z,70.30
2022-10-02T18:30:31.238Z,71.00
2022-10-02T18:33:18.742Z,71.20
2022-10-02T18:36:12.920Z,71.30
2022-10-02T18:39:01.601Z,71.50
2022-10-02T18:41:53.218Z,71.80
2022-10-02T18:44:25.006Z,71.90
2022-10-02T18:47:22.981Z,72.00
2022-10-02T18:50:04.487Z,72.40
2022-10-02T18:52:45.932Z,72.40
2022-10-02T18:55:39.035Z,72.60
2022-10-02T18:59:03.309Z,72.80
2022-10-02T19:06:30.605Z,73.30
2022-10-02T19:09:09.837Z,73.50
2022-10-02T19:12:18.721Z,73.70
2022-10-02T19:15:17.320Z,73.90
2022-10-02T19:18:17.068Z,73.90
2022-10-02T19:21:29.301Z,74.10
2022-10-02T19:28:13.471Z,74.40
2022-10-02T19:30:45.377Z,74.50
2022-10-02T19:33:25.245Z,74.40
2022-10-02T19:36:09.274Z,74.70
2022-10-02T19:38:40.105Z,74.90
2022-10-02T19:41:10.123Z,75.00
2022-10-02T19:43:52.854Z,75.20
2022-10-02T19:46:20.426Z,75.40
2022-10-02T19:48:47.437Z,75.50
2022-10-02T19:51:19.001Z,75.60
2022-10-02T19:53:53.520Z,75.70
2022-10-02T19:56:26.586Z,75.90
2022-10-02T19:59:13.114Z,76.10
2022-10-02T20:01:51.937Z,76.20
2022-10-02T20:04:23.806Z,76.30
2022-10-02T20:07:03.429Z,76.40
2022-10-02T20:09:43.060Z,76.50
2022-10-02T20:12:45.251Z,76.60
2022-10-02T20:15:18.377Z,76.90
2022-10-02T20:17:45.282Z,76.90
2022-10-02T20:20:17.791Z,76.90
2022-10-02T20:22:54.733Z,77.10
2022-10-02T20:25:28.937Z,77.30
2022-10-02T20:28:09.940Z,77.40
2022-10-02T20:34:45.564Z,77.70
2022-10-02T20:37:44.708Z,77.60
2022-10-02T20:41:09.547Z,77.60
2022-10-02T21:09:10.980Z,78.50
2022-10-02T21:40:30.093Z,79.10
2022-10-02T21:43:18.088Z,79.30
2022-10-02T21:45:59.804Z,79.20
2022-10-02T21:52:56.360Z,79.60
2022-10-02T21:56:00.577Z,79.60
2022-10-02T22:05:54.776Z,79.80
2022-10-02T22:15:49.334Z,80.10
2022-10-02T22:18:53.119Z,80.20
2022-10-02T22:21:58.727Z,80.10
2022-10-02T22:25:05.528Z,80.30
2022-10-02T22:27:43.227Z,80.30
2022-10-02T22:30:37.148Z,80.30
2022-10-02T22:33:47.881Z,80.40
2022-10-02T22:36:35.767Z,80.60
2022-10-02T22:39:33.331Z,80.50
2022-10-02T22:42:15.973Z,80.60
2022-10-02T22:44:57.135Z,80.70
2022-10-02T22:48:12.110Z,80.70
2022-10-02T22:50:59.497Z,80.90
2022-10-02T22:53:36.557Z,80.80
2022-10-02T22:56:14.384Z,80.90
2022-10-02T23:02:46.295Z,81.10
2022-10-02T23:05:28.145Z,81.10
2022-10-02T23:08:16.730Z,81.10
2022-10-02T23:10:54.998Z,81.20
2022-10-02T23:13:30.643Z,81.30
2022-10-02T23:16:21.694Z,81.30
2022-10-02T23:19:35.380Z,81.40
2022-10-02T23:22:15.752Z,81.50
2022-10-02T23:29:21.020Z,81.70
2022-10-02T23:32:01.527Z,81.60
2022-10-02T23:35:10.711Z,81.50
2022-10-02T23:38:17.402Z,81.80
2022-10-02T23:45:01.036Z,81.70
2022-10-02T23:48:30.735Z,81.80
2022-10-02T23:51:34.674Z,81.90
2022-10-02T23:54:21.849Z,81.90
2022-10-02T23:57:18.611Z,81.90
